createdAt,value
2023-03-13T00:00:56.408Z,12.77
2023-03-13T00:03:23.097Z,16.45
2023-03-13T00:05:49.860Z,12.77
2023-03-13T00:08:16.457Z,12.48
2023-03-13T00:10:43.121Z,16.23
2023-03-13T00:13:10.161Z,12.18
2023-03-13T00:15:36.820Z,17.52
2023-03-13T00:18:03.555Z,14.93
2023-03-13T00:20:30.241Z,12.13
2023-03-13T00:22:56.945Z,13.68
2023-03-13T00:25:23.764Z,12.18
2023-03-13T00:27:50.369Z,14.07
2023-03-13T00:30:17.317Z,13.20
2023-03-13T00:32:46.222Z,10.57
2023-03-13T00:35:16.362Z,18.67
2023-03-13T00:37:43.293Z,15.63
2023-03-13T00:40:10.476Z,10.90
2023-03-13T00:42:37.176Z,14.73
2023-03-13T00:45:04.230Z,12.82
2023-03-13T00:47:30.927Z,13.73
2023-03-13T00:49:57.557Z,17.27
2023-03-13T00:52:24.947Z,12.10
2023-03-13T00:54:51.662Z,15.10
2023-03-13T00:57:18.285Z,9.13
2023-03-13T00:59:44.876Z,14.82
2023-03-13T01:02:11.670Z,9.15
2023-03-13T01:04:38.344Z,19.15
2023-03-13T01:07:05.036Z,11.10
2023-03-13T01:09:31.638Z,7.32
2023-03-13T01:11:58.416Z,10.48
2023-03-13T01:14:25.040Z,14.35
2023-03-13T01:16:51.714Z,12.40
2023-03-13T01:19:19.342Z,19.38
2023-03-13T01:21:46.569Z,12.10
2023-03-13T01:24:13.652Z,12.68
2023-03-13T01:26:40.441Z,11.40
2023-03-13T01:29:07.024Z,13.25
2023-03-13T01:31:35.696Z,11.88
2023-03-13T01:34:05.568Z,14.82
2023-03-13T01:36:33.273Z,14.23
2023-03-13T01:39:01.207Z,13.15
2023-03-13T01:41:30.267Z,11.88
2023-03-13T01:43:57.620Z,12.23
2023-03-13T01:46:27.674Z,11.00
2023-03-13T01:49:05.638Z,16.73
2023-03-13T01:51:37.362Z,18.65
2023-03-13T01:54:08.964Z,11.38
2023-03-13T01:56:45.389Z,16.60
2023-03-13T01:59:16.854Z,10.90
2023-03-13T02:01:45.860Z,10.70
2023-03-13T02:04:15.328Z,17.13
2023-03-13T02:06:45.188Z,18.45
2023-03-13T02:09:18.678Z,11.43
2023-03-13T02:11:51.581Z,11.88
2023-03-13T02:14:22.429Z,12.02
2023-03-13T02:16:52.006Z,11.77
2023-03-13T02:19:28.203Z,12.02
2023-03-13T02:22:22.256Z,16.73
2023-03-13T02:25:03.824Z,18.25
2023-03-13T02:27:30.512Z,15.18
2023-03-13T02:29:58.403Z,11.63
2023-03-13T02:32:27.121Z,10.52
2023-03-13T02:34:58.346Z,12.00
2023-03-13T02:37:28.575Z,11.27
2023-03-13T02:39:57.146Z,10.80
2023-03-13T02:42:24.629Z,13.13
2023-03-13T02:44:52.193Z,11.25
2023-03-13T02:47:23.502Z,12.00
2023-03-13T02:49:51.077Z,14.68
2023-03-13T02:52:41.972Z,12.52
2023-03-13T02:55:14.319Z,11.65
2023-03-13T02:57:40.949Z,12.80
2023-03-13T03:00:12.448Z,12.35
2023-03-13T03:02:39.462Z,9.50
2023-03-13T03:05:07.229Z,10.50
2023-03-13T03:07:33.894Z,11.85
2023-03-13T03:10:00.620Z,11.02
2023-03-13T03:12:27.339Z,14.30
2023-03-13T03:14:54.025Z,13.52
2023-03-13T03:17:20.754Z,16.13
2023-03-13T03:19:47.346Z,14.65
2023-03-13T03:22:13.989Z,10.43
2023-03-13T03:24:40.606Z,10.27
2023-03-13T03:27:07.280Z,11.50
2023-03-13T03:29:33.885Z,11.30
2023-03-13T03:32:00.621Z,12.75
2023-03-13T03:34:27.401Z,13.98
2023-03-13T03:36:54.048Z,12.50
2023-03-13T03:39:20.680Z,8.25
2023-03-13T03:41:47.446Z,13.13
2023-03-13T03:44:14.130Z,15.40
2023-03-13T03:46:40.973Z,12.00
2023-03-13T03:49:07.618Z,15.20
2023-03-13T03:51:34.338Z,9.57
2023-03-13T03:54:00.983Z,11.13
2023-03-13T03:56:27.556Z,10.98
2023-03-13T03:58:54.186Z,7.80
2023-03-13T04:01:20.805Z,9.30
2023-03-13T04:03:48.798Z,9.05
2023-03-13T04:06:15.592Z,11.07
2023-03-13T04:08:42.298Z,11.88
2023-03-13T04:11:09.138Z,9.20
2023-03-13T04:13:35.777Z,17.25
2023-03-13T04:16:10.493Z,10.52
2023-03-13T04:18:37.121Z,11.02
2023-03-13T04:21:05.527Z,13.25
2023-03-13T04:23:32.141Z,13.90
2023-03-13T04:25:58.788Z,8.20
2023-03-13T04:28:25.463Z,9.73
2023-03-13T04:33:34.218Z,14.48
2023-03-13T04:36:00.836Z,11.23
2023-03-13T04:38:27.522Z,10.52
2023-03-13T04:40:54.228Z,9.88
2023-03-13T04:43:20.914Z,11.43
2023-03-13T04:45:47.587Z,9.45
2023-03-13T04:48:14.604Z,7.40
2023-03-13T04:50:41.246Z,12.88
2023-03-13T04:53:07.900Z,11.75
2023-03-13T04:55:34.556Z,16.08
2023-03-13T04:58:01.161Z,14.73
2023-03-13T05:00:27.800Z,13.25
2023-03-13T05:02:54.469Z,8.75
2023-03-13T05:05:21.340Z,9.45
2023-03-13T05:07:48.092Z,9.27
2023-03-13T05:10:15.026Z,12.00
2023-03-13T05:12:41.684Z,11.32
2023-03-13T05:15:08.902Z,9.93
2023-03-13T05:17:35.661Z,11.52
2023-03-13T05:20:02.400Z,15.00
2023-03-13T05:22:29.045Z,11.15
2023-03-13T05:24:55.723Z,10.60
2023-03-13T05:27:22.409Z,12.57
2023-03-13T05:29:49.119Z,15.13
2023-03-13T05:32:15.743Z,12.80
2023-03-13T05:34:42.450Z,9.88
2023-03-13T05:37:09.186Z,11.90
2023-03-13T05:39:35.900Z,9.77
2023-03-13T05:42:02.689Z,11.65
2023-03-13T05:44:29.471Z,13.65
2023-03-13T05:46:56.158Z,10.38
2023-03-13T05:49:22.802Z,12.43
2023-03-13T05:51:49.429Z,12.20
2023-03-13T05:54:16.218Z,11.07
2023-03-13T05:56:42.907Z,13.40
2023-03-13T05:59:09.534Z,10.13
2023-03-13T06:01:36.781Z,8.95
2023-03-13T06:04:03.507Z,11.02
2023-03-13T06:06:30.285Z,12.85
2023-03-13T06:08:56.937Z,16.92
2023-03-13T06:11:23.773Z,14.38
2023-03-13T06:13:52.840Z,15.60
2023-03-13T06:16:20.836Z,9.13
2023-03-13T06:18:47.537Z,10.13
2023-03-13T06:21:14.406Z,21.17
2023-03-13T06:23:42.239Z,11.05
2023-03-13T06:26:08.898Z,9.75
2023-03-13T06:28:35.614Z,12.60
2023-03-13T06:31:06.684Z,8.07
2023-03-13T06:33:33.757Z,11.27
2023-03-13T06:36:01.809Z,5.68
2023-03-13T06:38:29.428Z,8.70
2023-03-13T06:40:56.512Z,9.52
2023-03-13T06:43:23.558Z,9.35
2023-03-13T06:45:52.740Z,8.82
2023-03-13T06:48:19.476Z,8.50
2023-03-13T06:50:46.170Z,7.95
2023-03-13T06:53:18.229Z,7.95
2023-03-13T06:55:45.637Z,8.02
2023-03-13T06:58:25.348Z,6.82
2023-03-13T07:00:55.793Z,5.82
2023-03-13T07:03:22.637Z,8.82
2023-03-13T07:05:49.244Z,7.82
2023-03-13T07:08:15.911Z,9.20
2023-03-13T07:10:43.323Z,10.93
2023-03-13T07:13:10.002Z,11.45
2023-03-13T07:15:36.651Z,10.68
2023-03-13T07:18:03.268Z,8.88
2023-03-13T07:20:30.028Z,7.13
2023-03-13T07:22:56.817Z,9.98
2023-03-13T07:25:23.481Z,6.10
2023-03-13T07:27:52.420Z,8.73
2023-03-13T07:30:20.080Z,7.45
2023-03-13T07:32:46.797Z,8.32
2023-03-13T07:35:13.471Z,7.47
2023-03-13T07:37:40.117Z,6.93
2023-03-13T07:40:09.212Z,7.40
2023-03-13T07:42:35.975Z,5.65
2023-03-13T07:45:02.730Z,8.77
2023-03-13T07:47:29.350Z,6.43
2023-03-13T07:49:55.973Z,10.27
2023-03-13T07:52:23.038Z,9.38
2023-03-13T07:54:49.658Z,8.15
2023-03-13T07:57:16.388Z,8.27
2023-03-13T07:59:42.997Z,7.18
2023-03-13T08:02:13.740Z,12.05
2023-03-13T08:04:40.770Z,7.63
2023-03-13T08:07:11.316Z,8.63
2023-03-13T08:09:38.427Z,8.80
2023-03-13T08:12:05.350Z,9.80
2023-03-13T08:14:32.080Z,8.45
2023-03-13T08:16:58.802Z,10.65
2023-03-13T08:19:25.729Z,7.10
2023-03-13T08:21:52.428Z,6.75
2023-03-13T08:24:19.151Z,6.80
2023-03-13T08:26:45.781Z,8.95
2023-03-13T08:29:14.624Z,7.63
2023-03-13T08:31:49.884Z,7.20
2023-03-13T08:34:17.953Z,9.32
2023-03-13T08:36:45.050Z,6.82
2023-03-13T08:39:14.603Z,4.43
2023-03-13T08:41:41.342Z,5.88
2023-03-13T08:44:11.217Z,5.78
2023-03-13T08:46:38.796Z,4.88
2023-03-13T08:49:07.737Z,3.92
2023-03-13T08:51:35.423Z,3.25
2023-03-13T08:54:03.415Z,4.28
2023-03-13T08:56:31.975Z,5.40
2023-03-13T08:59:01.078Z,3.97
2023-03-13T09:01:31.102Z,4.53
2023-03-13T09:03:58.156Z,4.22
2023-03-13T09:06:24.904Z,3.95
2023-03-13T09:08:51.742Z,5.25
2023-03-13T09:11:20.439Z,4.07
2023-03-13T09:13:49.489Z,6.45
2023-03-13T09:16:18.686Z,5.05
2023-03-13T09:18:46.177Z,7.28
2023-03-13T09:21:19.049Z,5.10
2023-03-13T09:23:45.789Z,4.05
2023-03-13T09:26:13.434Z,3.17
2023-03-13T09:28:42.040Z,5.38
2023-03-13T09:31:12.991Z,5.30
2023-03-13T09:33:40.328Z,3.95
2023-03-13T09:36:08.248Z,4.78
2023-03-13T09:38:35.647Z,4.70
2023-03-13T09:41:16.851Z,2.80
2023-03-13T09:43:43.499Z,5.72
2023-03-13T09:46:35.528Z,3.05
2023-03-13T09:49:43.432Z,4.22
2023-03-13T09:52:29.020Z,3.78
2023-03-13T09:55:05.858Z,3.55
2023-03-13T09:57:54.252Z,3.35
2023-03-13T10:00:54.832Z,4.25
2023-03-13T10:03:27.496Z,4.63
2023-03-13T10:05:57.620Z,3.78
2023-03-13T10:08:35.131Z,3.05
2023-03-13T10:11:08.113Z,2.88
2023-03-13T10:13:49.120Z,3.88
2023-03-13T10:16:29.210Z,3.15
2023-03-13T10:18:59.281Z,4.65
2023-03-13T10:21:33.819Z,3.50
2023-03-13T10:24:11.726Z,4.40
2023-03-13T10:26:38.404Z,4.80
2023-03-13T10:29:21.076Z,4.18
2023-03-13T10:31:59.160Z,5.47
2023-03-13T10:34:28.026Z,6.95
2023-03-13T10:36:59.270Z,4.38
2023-03-13T10:39:30.079Z,4.63
2023-03-13T10:42:11.144Z,3.63
2023-03-13T10:44:38.159Z,7.47
2023-03-13T10:47:06.199Z,5.28
2023-03-13T10:49:33.932Z,5.13
2023-03-13T10:52:03.364Z,5.57
2023-03-13T10:54:35.118Z,2.75
2023-03-13T10:57:31.860Z,5.88
2023-03-13T10:59:59.408Z,6.07
2023-03-13T11:02:32.432Z,4.97
2023-03-13T11:04:59.804Z,6.65
2023-03-13T11:07:33.679Z,5.38
2023-03-13T11:10:20.731Z,3.55
2023-03-13T11:12:52.985Z,7.45
2023-03-13T11:15:32.607Z,4.82
2023-03-13T11:18:26.044Z,4.57
2023-03-13T11:20:53.626Z,5.28
2023-03-13T11:23:27.718Z,3.83
2023-03-13T11:26:19.220Z,5.68
2023-03-13T11:28:55.184Z,5.35
2023-03-13T11:31:29.666Z,5.32
2023-03-13T11:34:11.707Z,4.78
2023-03-13T11:37:15.060Z,3.00
2023-03-13T11:39:59.564Z,6.05
2023-03-13T11:42:40.172Z,4.55
2023-03-13T11:45:42.050Z,4.13
2023-03-13T11:48:36.030Z,4.78
2023-03-13T11:51:31.596Z,3.78
2023-03-13T11:54:09.902Z,3.83
2023-03-13T11:56:49.131Z,7.28
2023-03-13T11:59:52.985Z,4.70
2023-03-13T12:05:00.423Z,6.50
2023-03-13T12:10:02.157Z,4.15
2023-03-13T12:12:44.650Z,4.28
2023-03-13T12:15:15.018Z,5.10
2023-03-13T12:17:50.650Z,3.38
2023-03-13T12:20:30.924Z,6.65
2023-03-13T12:23:02.768Z,4.30
2023-03-13T12:26:00.482Z,2.75
2023-03-13T12:28:30.093Z,4.38
2023-03-13T12:31:06.901Z,4.03
2023-03-13T12:34:18.464Z,4.03
2023-03-13T12:36:52.713Z,5.97
2023-03-13T12:39:50.447Z,3.75
2023-03-13T12:42:57.105Z,4.07
2023-03-13T12:45:26.169Z,3.65
2023-03-13T12:48:11.288Z,4.93
2023-03-13T12:50:49.887Z,4.20
2023-03-13T12:53:44.590Z,4.35
2023-03-13T12:56:55.843Z,4.82
2023-03-13T12:59:36.956Z,4.43
2023-03-13T13:02:21.710Z,4.43
2023-03-13T13:04:50.897Z,2.97
2023-03-13T13:07:20.430Z,3.25
2023-03-13T13:10:01.241Z,2.53
2023-03-13T13:12:27.998Z,3.20
2023-03-13T13:15:11.433Z,5.95
2023-03-13T13:18:01.616Z,3.08
2023-03-13T13:20:38.985Z,3.72
2023-03-13T13:23:34.166Z,3.10
2023-03-13T13:26:36.754Z,3.28
2023-03-13T13:29:12.683Z,3.45
2023-03-13T13:31:49.511Z,5.45
2023-03-13T13:34:28.538Z,4.55
2023-03-13T13:36:57.147Z,4.45
2023-03-13T13:39:38.971Z,2.28
2023-03-13T13:42:33.453Z,3.22
2023-03-13T13:45:14.958Z,5.03
2023-03-13T13:47:44.479Z,4.18
2023-03-13T13:50:30.939Z,3.88
2023-03-13T13:53:33.377Z,2.63
2023-03-13T13:56:00.108Z,3.25
2023-03-13T13:58:30.034Z,3.17
2023-03-13T14:01:11.346Z,3.58
2023-03-13T14:03:42.341Z,3.83
2023-03-13T14:06:26.950Z,3.28
2023-03-13T14:08:57.653Z,3.60
2023-03-13T14:11:31.376Z,3.15
2023-03-13T14:14:30.449Z,4.35
2023-03-13T14:16:57.974Z,3.70
2023-03-13T14:19:30.524Z,3.35
2023-03-13T14:22:02.628Z,2.60
2023-03-13T14:24:29.363Z,4.10
2023-03-13T14:26:56.138Z,3.35
2023-03-13T14:29:26.134Z,4.78
2023-03-13T14:31:58.612Z,3.78
2023-03-13T14:34:27.421Z,3.63
2023-03-13T14:37:14.970Z,3.58
2023-03-13T14:39:45.439Z,4.72
2023-03-13T14:42:17.534Z,6.05
2023-03-13T14:44:46.563Z,3.70
2023-03-13T14:47:26.877Z,3.80
2023-03-13T14:49:59.393Z,5.45
2023-03-13T14:52:28.843Z,5.47
2023-03-13T14:54:58.014Z,4.18
2023-03-13T14:57:27.434Z,4.63
2023-03-13T14:59:55.598Z,4.63
2023-03-13T15:02:24.301Z,6.25
2023-03-13T15:04:53.242Z,4.65
2023-03-13T15:07:20.471Z,6.40
2023-03-13T15:09:48.779Z,6.68
2023-03-13T15:12:22.606Z,7.47
2023-03-13T15:14:52.713Z,5.82
2023-03-13T15:17:25.840Z,5.80
2023-03-13T15:19:57.936Z,6.72
2023-03-13T15:22:29.001Z,8.00
2023-03-13T15:25:05.689Z,7.25
2023-03-13T15:27:33.552Z,6.72
2023-03-13T15:30:00.243Z,6.63
2023-03-13T15:32:33.580Z,5.40
2023-03-13T15:35:01.922Z,9.35
2023-03-13T15:37:30.244Z,7.95
2023-03-13T15:39:57.788Z,5.55
2023-03-13T15:42:24.858Z,5.97
2023-03-13T15:44:51.550Z,7.13
2023-03-13T15:47:20.965Z,6.15
2023-03-13T15:49:48.308Z,6.38
2023-03-13T15:52:18.881Z,6.55
2023-03-13T15:54:49.870Z,6.13
2023-03-13T15:57:25.496Z,7.13
2023-03-13T15:59:53.690Z,6.00
2023-03-13T16:02:23.263Z,7.22
2023-03-13T16:04:51.049Z,7.10
2023-03-13T16:07:21.528Z,5.63
2023-03-13T16:09:48.790Z,6.20
2023-03-13T16:12:15.474Z,8.27
2023-03-13T16:14:42.515Z,7.75
2023-03-13T16:17:15.629Z,6.38
2023-03-13T16:19:43.189Z,6.13
2023-03-13T16:22:10.505Z,8.15
2023-03-13T16:24:37.141Z,6.95
2023-03-13T16:27:16.783Z,6.10
2023-03-13T16:29:44.651Z,6.40
2023-03-13T16:32:18.687Z,8.18
2023-03-13T16:34:45.390Z,5.40
2023-03-13T16:37:14.029Z,6.85
2023-03-13T16:39:41.303Z,6.18
2023-03-13T16:42:08.470Z,6.22
2023-03-13T16:44:35.089Z,4.72
2023-03-13T16:47:05.852Z,5.35
2023-03-13T16:49:33.051Z,6.15
2023-03-13T16:51:59.668Z,6.25
2023-03-13T16:54:26.305Z,7.78
2023-03-13T16:56:52.986Z,4.18
2023-03-13T16:59:19.781Z,5.38
2023-03-13T17:01:47.143Z,4.97
2023-03-13T17:04:14.183Z,4.43
2023-03-13T17:06:44.431Z,7.40
2023-03-13T17:09:14.808Z,5.07
2023-03-13T17:11:41.739Z,5.80
2023-03-13T17:14:08.493Z,6.15
2023-03-13T17:16:38.487Z,5.80
2023-03-13T17:19:08.473Z,4.32
2023-03-13T17:21:36.635Z,5.55
2023-03-13T17:24:03.858Z,5.63
2023-03-13T17:26:36.477Z,5.82
2023-03-13T17:29:05.113Z,8.38
2023-03-13T17:31:37.367Z,8.25
2023-03-13T17:34:05.635Z,5.30
2023-03-13T17:36:32.414Z,6.85
2023-03-13T17:39:01.837Z,6.53
2023-03-13T17:41:31.810Z,8.55
2023-03-13T17:44:03.714Z,6.88
2023-03-13T17:46:39.095Z,6.93
2023-03-13T17:49:07.638Z,8.73
2023-03-13T17:51:35.641Z,8.20
2023-03-13T17:54:02.974Z,7.53
2023-03-13T17:56:30.948Z,8.05
2023-03-13T17:58:59.812Z,6.43
2023-03-13T18:01:31.016Z,7.40
2023-03-13T18:03:58.377Z,9.85
2023-03-13T18:06:39.775Z,8.20
2023-03-13T18:09:11.908Z,8.05
2023-03-13T18:11:38.990Z,5.95
2023-03-13T18:14:06.586Z,7.05
2023-03-13T18:16:42.778Z,8.02
2023-03-13T18:19:19.938Z,6.45
2023-03-13T18:21:49.980Z,5.30
2023-03-13T18:24:20.068Z,6.40
2023-03-13T18:26:48.033Z,6.15
2023-03-13T18:29:16.248Z,7.03
2023-03-13T18:31:43.836Z,7.45
2023-03-13T18:34:11.614Z,6.07
2023-03-13T18:36:39.049Z,6.97
2023-03-13T18:39:06.468Z,8.15
2023-03-13T18:41:34.293Z,5.97
2023-03-13T18:44:03.969Z,6.35
2023-03-13T18:46:31.960Z,7.03
2023-03-13T18:48:58.880Z,6.72
2023-03-13T18:51:26.158Z,7.68
2023-03-13T18:53:54.124Z,6.47
2023-03-13T18:56:27.855Z,6.25
2023-03-13T18:58:55.804Z,7.28
2023-03-13T19:01:25.018Z,7.43
2023-03-13T19:03:51.840Z,7.25
2023-03-13T19:06:25.737Z,8.65
2023-03-13T19:08:56.116Z,8.85
2023-03-13T19:11:25.970Z,9.45
2023-03-13T19:13:52.894Z,9.43
2023-03-13T19:16:39.993Z,7.40
2023-03-13T19:19:12.734Z,7.47
2023-03-13T19:21:40.061Z,9.13
2023-03-13T19:24:07.082Z,8.75
2023-03-13T19:26:41.041Z,7.70
2023-03-13T19:29:16.825Z,8.13
2023-03-13T19:31:43.980Z,7.72
2023-03-13T19:34:11.071Z,8.77
2023-03-13T19:36:40.333Z,9.23
2023-03-13T19:39:16.925Z,7.53
2023-03-13T19:41:43.907Z,6.90
2023-03-13T19:44:11.012Z,7.05
2023-03-13T19:46:43.100Z,8.05
2023-03-13T19:49:13.020Z,7.25
2023-03-13T19:51:39.919Z,8.23
2023-03-13T19:54:07.556Z,8.35
2023-03-13T19:56:34.255Z,7.03
2023-03-13T19:59:05.326Z,9.38
2023-03-13T20:01:32.701Z,7.88
2023-03-13T20:03:59.642Z,4.30
2023-03-13T20:06:29.022Z,5.95
2023-03-13T20:08:57.666Z,5.03
2023-03-13T20:11:25.819Z,7.78
2023-03-13T20:13:52.950Z,7.63
2023-03-13T20:16:21.748Z,4.57
2023-03-13T20:18:49.652Z,8.82
2023-03-13T20:21:17.898Z,4.93
2023-03-13T20:23:49.626Z,7.78
2023-03-13T20:26:18.234Z,7.05
2023-03-13T20:28:47.279Z,5.03
2023-03-13T20:31:16.764Z,6.07
2023-03-13T20:33:43.491Z,4.70
2023-03-13T20:36:15.987Z,6.57
2023-03-13T20:38:43.534Z,5.03
2023-03-13T20:41:10.988Z,6.70
2023-03-13T20:43:38.754Z,6.90
2023-03-13T20:46:09.465Z,5.53
2023-03-13T20:48:39.264Z,6.65
2023-03-13T20:51:08.036Z,5.45
2023-03-13T20:53:36.853Z,5.75
2023-03-13T20:56:06.579Z,5.47
2023-03-13T20:58:33.838Z,3.67
2023-03-13T21:01:01.458Z,5.03
2023-03-13T21:03:28.522Z,4.75
2023-03-13T21:05:55.320Z,5.90
2023-03-13T21:08:22.787Z,7.93
2023-03-13T21:10:50.375Z,6.57
2023-03-13T21:13:17.069Z,5.68
2023-03-13T21:15:43.748Z,5.50
2023-03-13T21:18:10.364Z,3.97
2023-03-13T21:20:38.848Z,5.30
2023-03-13T21:23:05.534Z,6.13
2023-03-13T21:25:32.157Z,5.47
2023-03-13T21:27:58.781Z,4.82
2023-03-13T21:30:25.457Z,3.13
2023-03-13T21:32:52.209Z,4.78
2023-03-13T21:35:18.930Z,4.35
2023-03-13T21:37:45.855Z,3.80
2023-03-13T21:40:13.095Z,4.53
2023-03-13T21:42:40.044Z,3.20
2023-03-13T21:45:07.677Z,4.80
2023-03-13T21:47:37.101Z,4.53
2023-03-13T21:50:08.218Z,5.03
2023-03-13T21:52:41.211Z,4.35
2023-03-13T21:55:11.529Z,3.95
2023-03-13T21:57:38.375Z,5.35
2023-03-13T22:00:08.164Z,4.90
2023-03-13T22:02:35.992Z,5.32
2023-03-13T22:05:04.522Z,4.00
2023-03-13T22:07:31.174Z,4.57
2023-03-13T22:09:58.180Z,3.78
2023-03-13T22:12:25.614Z,3.33
2023-03-13T22:14:52.946Z,4.38
2023-03-13T22:17:20.396Z,5.18
2023-03-13T22:19:47.808Z,5.47
2023-03-13T22:22:15.528Z,5.03
2023-03-13T22:24:42.186Z,4.30
2023-03-13T22:27:12.735Z,5.15
2023-03-13T22:29:39.562Z,7.90
2023-03-13T22:32:06.348Z,8.35
2023-03-13T22:34:33.006Z,4.70
2023-03-13T22:36:59.589Z,5.10
2023-03-13T22:39:26.326Z,3.55
2023-03-13T22:41:52.941Z,4.57
2023-03-13T22:44:19.682Z,4.35
2023-03-13T22:46:46.358Z,5.18
2023-03-13T22:49:13.037Z,4.78
2023-03-13T22:51:39.697Z,4.22
2023-03-13T22:54:06.361Z,5.57
2023-03-13T22:56:33.070Z,6.78
2023-03-13T22:58:59.769Z,5.28
2023-03-13T23:01:26.676Z,3.08
2023-03-13T23:03:53.415Z,5.25
2023-03-13T23:06:22.932Z,4.70
2023-03-13T23:08:50.452Z,5.25
2023-03-13T23:11:17.862Z,3.35
2023-03-13T23:13:44.535Z,3.28
2023-03-13T23:16:12.076Z,4.63
2023-03-13T23:18:39.661Z,4.85
2023-03-13T23:21:08.763Z,4.82
2023-03-13T23:23:35.686Z,4.32
2023-03-13T23:26:04.587Z,3.55
2023-03-13T23:28:31.582Z,2.58
2023-03-13T23:30:58.308Z,3.67
2023-03-13T23:33:24.992Z,2.55
2023-03-13T23:35:51.694Z,3.30
2023-03-13T23:38:23.789Z,3.38
2023-03-13T23:40:50.480Z,4.20
2023-03-13T23:43:17.203Z,5.72
2023-03-13T23:45:43.867Z,3.42
2023-03-13T23:48:10.510Z,2.28
2023-03-13T23:50:37.199Z,3.92
2023-03-13T23:53:03.907Z,3.35
2023-03-13T23:55:30.539Z,2.53
2023-03-13T23:57:57.269Z,3.60
